<?xml version="1.0" encoding="UTF-8" standalone="no" ?>
<gpx xmlns="http://www.topografix.com/GPX/1/1" xmlns:xsi="http://www.w3.org/2001/XMLSchema-instance" xsi:schemaLocation="http://www.topografix.com/GPX/1/1 http://www.topografix.com/GPX/1/1/gpx.xsd" version="1.1" creator="VisuGPX - https://www.visugpx.com">
  <metadata>
    <name>Étauliers - Traces La Vergne</name>
  </metadata>
  <wpt lat="45.22272" lon="-0.64796">
    <ele>2.2</ele>
    <name><![CDATA[Pique Nique]]></name>
    <type><![CDATA[picnic]]></type>
  </wpt>
  <trk>
    <name><![CDATA[Canal des Demiers depuis La Tente]]></name>
    <extensions>
      <line xmlns="http://www.topografix.com/GPX/gpx_style/0/2">
        <color>000088</color>
        <width>4</width>
      </line>
    </extensions>
    <trkseg>
      <trkpt lat="45.22209" lon="-0.61441">
        <ele>52.47</ele>
        <time>2023-05-07T15:36:20Z</time>
      </trkpt>
      <trkpt lat="45.22204" lon="-0.61452">
        <ele>52.34</ele>
        <time>2023-05-07T15:36:29Z</time>
      </trkpt>
      <trkpt lat="45.22198" lon="-0.61463">
        <ele>52.04</ele>
        <time>2023-05-07T15:36:37Z</time>
      </trkpt>
      <trkpt lat="45.2219" lon="-0.61472">
        <ele>51.12</ele>
        <time>2023-05-07T15:37:19Z</time>
      </trkpt>
      <trkpt lat="45.22185" lon="-0.61482">
        <ele>51.55</ele>
        <time>2023-05-07T15:37:24Z</time>
      </trkpt>
      <trkpt lat="45.22179" lon="-0.61493">
        <ele>52.04</ele>
        <time>2023-05-07T15:37:28Z</time>
      </trkpt>
      <trkpt lat="45.22173" lon="-0.61504">
        <ele>52.65</ele>
        <time>2023-05-07T15:37:32Z</time>
      </trkpt>
      <trkpt lat="45.22166" lon="-0.61515">
        <ele>52.8</ele>
        <time>2023-05-07T15:37:36Z</time>
      </trkpt>
      <trkpt lat="45.22159" lon="-0.61527">
        <ele>52.56</ele>
        <time>2023-05-07T15:37:40Z</time>
      </trkpt>
      <trkpt lat="45.22152" lon="-0.61537">
        <ele>52.94</ele>
        <time>2023-05-07T15:37:44Z</time>
      </trkpt>
      <trkpt lat="45.22145" lon="-0.61548">
        <ele>52.63</ele>
        <time>2023-05-07T15:37:49Z</time>
      </trkpt>
      <trkpt lat="45.22139" lon="-0.6156">
        <ele>52.49</ele>
        <time>2023-05-07T15:37:54Z</time>
      </trkpt>
      <trkpt lat="45.22133" lon="-0.6157">
        <ele>51.94</ele>
        <time>2023-05-07T15:37:58Z</time>
      </trkpt>
      <trkpt lat="45.22128" lon="-0.61581">
        <ele>53.07</ele>
        <time>2023-05-07T15:38:03Z</time>
      </trkpt>
      <trkpt lat="45.22121" lon="-0.61593">
        <ele>53.28</ele>
        <time>2023-05-07T15:38:07Z</time>
      </trkpt>
      <trkpt lat="45.22114" lon="-0.61603">
        <ele>53.73</ele>
        <time>2023-05-07T15:38:11Z</time>
      </trkpt>
      <trkpt lat="45.22108" lon="-0.61613">
        <ele>53.23</ele>
        <time>2023-05-07T15:38:15Z</time>
      </trkpt>
      <trkpt lat="45.221" lon="-0.61624">
        <ele>52.81</ele>
        <time>2023-05-07T15:38:20Z</time>
      </trkpt>
      <trkpt lat="45.22093" lon="-0.61636">
        <ele>52.77</ele>
        <time>2023-05-07T15:38:25Z</time>
      </trkpt>
      <trkpt lat="45.22087" lon="-0.61647">
        <ele>52.7</ele>
        <time>2023-05-07T15:38:29Z</time>
      </trkpt>
      <trkpt lat="45.22081" lon="-0.61656">
        <ele>52.75</ele>
        <time>2023-05-07T15:38:33Z</time>
      </trkpt>
      <trkpt lat="45.22075" lon="-0.61667">
        <ele>53.09</ele>
        <time>2023-05-07T15:38:37Z</time>
      </trkpt>
      <trkpt lat="45.2207" lon="-0.61677">
        <ele>52.88</ele>
        <time>2023-05-07T15:38:41Z</time>
      </trkpt>
      <trkpt lat="45.22064" lon="-0.61687">
        <ele>54.12</ele>
        <time>2023-05-07T15:38:45Z</time>
      </trkpt>
      <trkpt lat="45.22057" lon="-0.61698">
        <ele>53.68</ele>
        <time>2023-05-07T15:38:49Z</time>
      </trkpt>
      <trkpt lat="45.2205" lon="-0.61709">
        <ele>53.75</ele>
        <time>2023-05-07T15:38:53Z</time>
      </trkpt>
      <trkpt lat="45.22045" lon="-0.6172">
        <ele>49.81</ele>
        <time>2023-05-07T15:39:58Z</time>
      </trkpt>
      <trkpt lat="45.22038" lon="-0.6173">
        <ele>50.36</ele>
        <time>2023-05-07T15:40:32Z</time>
      </trkpt>
      <trkpt lat="45.22032" lon="-0.61739">
        <ele>50.97</ele>
        <time>2023-05-07T15:40:42Z</time>
      </trkpt>
      <trkpt lat="45.22025" lon="-0.6175">
        <ele>50.1</ele>
        <time>2023-05-07T15:40:53Z</time>
      </trkpt>
      <trkpt lat="45.22021" lon="-0.61761">
        <ele>50.08</ele>
        <time>2023-05-07T15:41:03Z</time>
      </trkpt>
      <trkpt lat="45.22014" lon="-0.6177">
        <ele>51.28</ele>
        <time>2023-05-07T15:41:12Z</time>
      </trkpt>
      <trkpt lat="45.22009" lon="-0.61781">
        <ele>51.24</ele>
        <time>2023-05-07T15:41:21Z</time>
      </trkpt>
      <trkpt lat="45.22003" lon="-0.61791">
        <ele>49.21</ele>
        <time>2023-05-07T15:42:07Z</time>
      </trkpt>
      <trkpt lat="45.21997" lon="-0.61803">
        <ele>48.72</ele>
        <time>2023-05-07T15:42:13Z</time>
      </trkpt>
      <trkpt lat="45.2199" lon="-0.61813">
        <ele>49</ele>
        <time>2023-05-07T15:42:19Z</time>
      </trkpt>
      <trkpt lat="45.21984" lon="-0.61823">
        <ele>50.45</ele>
        <time>2023-05-07T15:42:25Z</time>
      </trkpt>
      <trkpt lat="45.21977" lon="-0.61833">
        <ele>51.02</ele>
        <time>2023-05-07T15:42:31Z</time>
      </trkpt>
      <trkpt lat="45.2197" lon="-0.61841">
        <ele>50.47</ele>
        <time>2023-05-07T15:42:36Z</time>
      </trkpt>
      <trkpt lat="45.21962" lon="-0.6185">
        <ele>50.11</ele>
        <time>2023-05-07T15:42:47Z</time>
      </trkpt>
      <trkpt lat="45.21953" lon="-0.61857">
        <ele>50.33</ele>
        <time>2023-05-07T15:42:53Z</time>
      </trkpt>
      <trkpt lat="45.21944" lon="-0.61854">
        <ele>52.06</ele>
        <time>2023-05-07T15:43:52Z</time>
      </trkpt>
      <trkpt lat="45.21934" lon="-0.61853">
        <ele>51.85</ele>
        <time>2023-05-07T15:43:58Z</time>
      </trkpt>
      <trkpt lat="45.21924" lon="-0.61852">
        <ele>51.53</ele>
        <time>2023-05-07T15:44:04Z</time>
      </trkpt>
      <trkpt lat="45.21913" lon="-0.61851">
        <ele>51.09</ele>
        <time>2023-05-07T15:44:10Z</time>
      </trkpt>
      <trkpt lat="45.21903" lon="-0.61849">
        <ele>50.57</ele>
        <time>2023-05-07T15:44:16Z</time>
      </trkpt>
      <trkpt lat="45.21894" lon="-0.61847">
        <ele>49.91</ele>
        <time>2023-05-07T15:44:21Z</time>
      </trkpt>
      <trkpt lat="45.21883" lon="-0.61846">
        <ele>50.15</ele>
        <time>2023-05-07T15:44:27Z</time>
      </trkpt>
      <trkpt lat="45.21873" lon="-0.61844">
        <ele>49.89</ele>
        <time>2023-05-07T15:44:33Z</time>
      </trkpt>
      <trkpt lat="45.21862" lon="-0.61844">
        <ele>49.52</ele>
        <time>2023-05-07T15:44:39Z</time>
      </trkpt>
      <trkpt lat="45.21852" lon="-0.61842">
        <ele>49.44</ele>
        <time>2023-05-07T15:44:45Z</time>
      </trkpt>
      <trkpt lat="45.21843" lon="-0.61839">
        <ele>49.33</ele>
        <time>2023-05-07T15:44:50Z</time>
      </trkpt>
      <trkpt lat="45.21834" lon="-0.61836">
        <ele>49.69</ele>
        <time>2023-05-07T15:44:55Z</time>
      </trkpt>
      <trkpt lat="45.21825" lon="-0.61835">
        <ele>49.69</ele>
        <time>2023-05-07T15:45:00Z</time>
      </trkpt>
      <trkpt lat="45.21816" lon="-0.61832">
        <ele>49.3</ele>
        <time>2023-05-07T15:45:06Z</time>
      </trkpt>
      <trkpt lat="45.21806" lon="-0.61833">
        <ele>49.47</ele>
        <time>2023-05-07T15:45:12Z</time>
      </trkpt>
      <trkpt lat="45.21796" lon="-0.61831">
        <ele>49.3</ele>
        <time>2023-05-07T15:45:18Z</time>
      </trkpt>
      <trkpt lat="45.21785" lon="-0.6183">
        <ele>49.27</ele>
        <time>2023-05-07T15:45:24Z</time>
      </trkpt>
      <trkpt lat="45.21776" lon="-0.61829">
        <ele>49.48</ele>
        <time>2023-05-07T15:45:30Z</time>
      </trkpt>
      <trkpt lat="45.21766" lon="-0.61825">
        <ele>49.15</ele>
        <time>2023-05-07T15:45:37Z</time>
      </trkpt>
      <trkpt lat="45.21756" lon="-0.61824">
        <ele>49.11</ele>
        <time>2023-05-07T15:45:43Z</time>
      </trkpt>
      <trkpt lat="45.21746" lon="-0.61821">
        <ele>48.92</ele>
        <time>2023-05-07T15:45:48Z</time>
      </trkpt>
      <trkpt lat="45.21737" lon="-0.6182">
        <ele>48.41</ele>
        <time>2023-05-07T15:45:53Z</time>
      </trkpt>
      <trkpt lat="45.21727" lon="-0.61818">
        <ele>48.75</ele>
        <time>2023-05-07T15:45:58Z</time>
      </trkpt>
      <trkpt lat="45.21718" lon="-0.61816">
        <ele>48.48</ele>
        <time>2023-05-07T15:46:03Z</time>
      </trkpt>
      <trkpt lat="45.21708" lon="-0.61816">
        <ele>48.51</ele>
        <time>2023-05-07T15:46:08Z</time>
      </trkpt>
      <trkpt lat="45.21698" lon="-0.61815">
        <ele>48.19</ele>
        <time>2023-05-07T15:46:13Z</time>
      </trkpt>
      <trkpt lat="45.21688" lon="-0.61814">
        <ele>48.06</ele>
        <time>2023-05-07T15:46:18Z</time>
      </trkpt>
      <trkpt lat="45.21679" lon="-0.61813">
        <ele>48.14</ele>
        <time>2023-05-07T15:46:23Z</time>
      </trkpt>
      <trkpt lat="45.21669" lon="-0.61812">
        <ele>47.68</ele>
        <time>2023-05-07T15:46:28Z</time>
      </trkpt>
      <trkpt lat="45.2166" lon="-0.6181">
        <ele>47.71</ele>
        <time>2023-05-07T15:46:33Z</time>
      </trkpt>
      <trkpt lat="45.21651" lon="-0.61809">
        <ele>48.25</ele>
        <time>2023-05-07T15:46:39Z</time>
      </trkpt>
      <trkpt lat="45.2164" lon="-0.61806">
        <ele>48.7</ele>
        <time>2023-05-07T15:47:22Z</time>
      </trkpt>
      <trkpt lat="45.2163" lon="-0.61803">
        <ele>49.77</ele>
        <time>2023-05-07T15:47:27Z</time>
      </trkpt>
      <trkpt lat="45.21619" lon="-0.618">
        <ele>50.41</ele>
        <time>2023-05-07T15:47:32Z</time>
        <extensions>
          <visugpx:TrkExtension xmlns:visugpx="https://www.visugpx.com/editgpx/">
            <visugpx:node>1</visugpx:node>
            </visugpx:TrkExtension>
        </extensions>
      </trkpt>
      <trkpt lat="45.2161" lon="-0.61798">
        <ele>2</ele>
      </trkpt>
      <trkpt lat="45.21604" lon="-0.618">
        <ele>2</ele>
        <extensions>
          <visugpx:TrkExtension xmlns:visugpx="https://www.visugpx.com/editgpx/">
            <visugpx:node>2</visugpx:node>
            </visugpx:TrkExtension>
        </extensions>
      </trkpt>
      <trkpt lat="45.21604" lon="-0.61801">
        <ele>2</ele>
      </trkpt>
      <trkpt lat="45.213" lon="-0.60699">
        <ele>2</ele>
      </trkpt>
      <trkpt lat="45.21208" lon="-0.60357">
        <ele>2.6</ele>
        <extensions>
          <visugpx:TrkExtension xmlns:visugpx="https://www.visugpx.com/editgpx/">
            <visugpx:node>3</visugpx:node>
            </visugpx:TrkExtension>
        </extensions>
      </trkpt>
      <trkpt lat="45.21207" lon="-0.60354">
        <ele>2.6</ele>
      </trkpt>
      <trkpt lat="45.21857" lon="-0.60118">
        <ele>2.8</ele>
        <extensions>
          <visugpx:TrkExtension xmlns:visugpx="https://www.visugpx.com/editgpx/">
            <visugpx:node>4</visugpx:node>
            </visugpx:TrkExtension>
        </extensions>
      </trkpt>
    </trkseg>
  </trk>
</gpx>